sensor_id;sensor_type;location;lat;lon;timestamp;temperature;humidity
1205;DHT22;592;48.764;9.174;2024-02-23T08:19:35;5.30;99.90
1205;DHT22;592;48.764;9.174;2024-02-23T08:22:03;5.30;99.90
1205;DHT22;592;48.764;9.174;2024-02-23T08:24:31;5.20;99.90
1205;DHT22;592;48.764;9.174;2024-02-23T08:27:00;5.20;99.90
1205;DHT22;592;48.764;9.174;2024-02-23T08:40:04;5.70;99.90
1205;DHT22;592;48.764;9.174;2024-02-23T08:42:37;5.50;99.90
1205;DHT22;592;48.764;9.174;2024-02-23T12:47:22;8.90;97.80
1205;DHT22;592;48.764;9.174;2024-02-23T12:57:56;8.90;97.90
1205;DHT22;592;48.764;9.174;2024-02-23T13:00:23;8.90;97.20
1205;DHT22;592;48.764;9.174;2024-02-23T13:02:53;8.80;97.10
1205;DHT22;592;48.764;9.174;2024-02-23T13:05:20;8.70;97.70
1205;DHT22;592;48.764;9.174;2024-02-23T13:07:47;8.60;97.20
1205;DHT22;592;48.764;9.174;2024-02-23T13:10:14;8.40;97.10
1205;DHT22;592;48.764;9.174;2024-02-23T13:12:43;8.40;97.90
1205;DHT22;592;48.764;9.174;2024-02-23T13:15:10;8.70;98.20
1205;DHT22;592;48.764;9.174;2024-02-23T13:17:37;9.00;97.90
1205;DHT22;592;48.764;9.174;2024-02-23T13:20:08;9.10;97.60
1205;DHT22;592;48.764;9.174;2024-02-23T13:22:49;9.30;98.00
1205;DHT22;592;48.764;9.174;2024-02-23T13:25:19;9.20;96.30
1205;DHT22;592;48.764;9.174;2024-02-23T13:27:46;8.80;96.10
1205;DHT22;592;48.764;9.174;2024-02-23T13:30:14;8.80;97.00
1205;DHT22;592;48.764;9.174;2024-02-23T13:32:44;8.80;97.10
1205;DHT22;592;48.764;9.174;2024-02-23T13:35:16;9.00;98.10
1205;DHT22;592;48.764;9.174;2024-02-23T13:37:46;9.40;98.60
1205;DHT22;592;48.764;9.174;2024-02-23T13:40:12;9.30;97.10
1205;DHT22;592;48.764;9.174;2024-02-23T13:42:41;9.20;97.70
1205;DHT22;592;48.764;9.174;2024-02-23T13:45:08;9.00;96.90
1205;DHT22;592;48.764;9.174;2024-02-23T13:47:35;8.80;97.10
1205;DHT22;592;48.764;9.174;2024-02-23T13:50:03;8.90;97.40
1205;DHT22;592;48.764;9.174;2024-02-23T13:52:32;9.00;97.40
1205;DHT22;592;48.764;9.174;2024-02-23T13:55:00;9.20;98.20
1205;DHT22;592;48.764;9.174;2024-02-23T13:57:26;9.00;97.40
1205;DHT22;592;48.764;9.174;2024-02-23T13:59:55;9.10;98.10
1205;DHT22;592;48.764;9.174;2024-02-23T14:02:25;9.10;97.60
1205;DHT22;592;48.764;9.174;2024-02-23T14:05:01;9.00;97.60
1205;DHT22;592;48.764;9.174;2024-02-23T14:07:29;8.80;97.50
1205;DHT22;592;48.764;9.174;2024-02-23T14:10:03;8.70;97.30
1205;DHT22;592;48.764;9.174;2024-02-23T14:12:31;8.90;98.20
1205;DHT22;592;48.764;9.174;2024-02-23T14:14:58;9.00;97.90
1205;DHT22;592;48.764;9.174;2024-02-23T14:17:24;9.00;97.50
1205;DHT22;592;48.764;9.174;2024-02-23T14:19:52;9.00;97.60
1205;DHT22;592;48.764;9.174;2024-02-23T14:22:19;8.90;97.40
1205;DHT22;592;48.764;9.174;2024-02-23T14:24:46;9.10;97.50
1205;DHT22;592;48.764;9.174;2024-02-23T14:27:14;9.00;97.90
1205;DHT22;592;48.764;9.174;2024-02-23T14:29:41;9.00;97.70
1205;DHT22;592;48.764;9.174;2024-02-23T14:32:15;9.10;97.50
1205;DHT22;592;48.764;9.174;2024-02-23T14:34:43;9.30;97.60
1205;DHT22;592;48.764;9.174;2024-02-23T14:37:11;9.50;97.30
1205;DHT22;592;48.764;9.174;2024-02-23T14:39:39;9.20;96.80
1205;DHT22;592;48.764;9.174;2024-02-23T14:42:06;10.40;95.00
1205;DHT22;592;48.764;9.174;2024-02-23T14:44:36;11.20;94.50
1205;DHT22;592;48.764;9.174;2024-02-23T14:47:03;11.10;93.90
1205;DHT22;592;48.764;9.174;2024-02-23T14:49:30;10.40;94.60
1205;DHT22;592;48.764;9.174;2024-02-23T14:51:57;10.00;94.50
1205;DHT22;592;48.764;9.174;2024-02-23T14:54:25;9.70;95.70
1205;DHT22;592;48.764;9.174;2024-02-23T14:56:52;9.50;96.40
1205;DHT22;592;48.764;9.174;2024-02-23T14:59:19;9.00;96.10
1205;DHT22;592;48.764;9.174;2024-02-23T15:01:47;8.90;96.70
1205;DHT22;592;48.764;9.174;2024-02-23T15:04:15;9.00;97.40
1205;DHT22;592;48.764;9.174;2024-02-23T15:06:41;8.90;96.80
1205;DHT22;592;48.764;9.174;2024-02-23T15:09:08;8.90;97.20
1205;DHT22;592;48.764;9.174;2024-02-23T15:11:36;8.70;97.40
1205;DHT22;592;48.764;9.174;2024-02-23T15:14:03;8.70;97.30
1205;DHT22;592;48.764;9.174;2024-02-23T15:16:30;8.70;97.10
1205;DHT22;592;48.764;9.174;2024-02-23T15:18:59;8.70;97.20
1205;DHT22;592;48.764;9.174;2024-02-23T15:21:26;8.60;97.30
1205;DHT22;592;48.764;9.174;2024-02-23T15:23:53;8.80;97.20
1205;DHT22;592;48.764;9.174;2024-02-23T15:26:19;8.70;97.40
1205;DHT22;592;48.764;9.174;2024-02-23T15:28:46;8.40;97.00
1205;DHT22;592;48.764;9.174;2024-02-23T15:31:13;8.60;97.70
1205;DHT22;592;48.764;9.174;2024-02-23T15:33:40;8.60;97.70
1205;DHT22;592;48.764;9.174;2024-02-23T15:36:08;8.60;97.50
1205;DHT22;592;48.764;9.174;2024-02-23T15:38:35;8.70;97.80
1205;DHT22;592;48.764;9.174;2024-02-23T15:41:04;8.70;97.80
1205;DHT22;592;48.764;9.174;2024-02-23T15:43:31;8.50;97.60
1205;DHT22;592;48.764;9.174;2024-02-23T15:46:01;8.60;97.50
1205;DHT22;592;48.764;9.174;2024-02-23T15:48:31;8.70;98.40
1205;DHT22;592;48.764;9.174;2024-02-23T15:50:58;8.70;97.80
1205;DHT22;592;48.764;9.174;2024-02-23T15:53:26;8.60;97.50
1205;DHT22;592;48.764;9.174;2024-02-23T15:55:53;8.70;97.80
1205;DHT22;592;48.764;9.174;2024-02-23T15:58:19;8.60;97.50
1205;DHT22;592;48.764;9.174;2024-02-23T16:00:46;8.60;98.00
1205;DHT22;592;48.764;9.174;2024-02-23T16:03:13;8.70;97.80
1205;DHT22;592;48.764;9.174;2024-02-23T16:05:42;8.60;98.50
1205;DHT22;592;48.764;9.174;2024-02-23T16:08:11;8.70;98.70
1205;DHT22;592;48.764;9.174;2024-02-23T16:10:39;8.50;99.20
1205;DHT22;592;48.764;9.174;2024-02-23T16:13:06;8.40;99.00
1205;DHT22;592;48.764;9.174;2024-02-23T16:15:34;8.00;99.60
1205;DHT22;592;48.764;9.174;2024-02-23T16:18:01;8.10;99.90
1205;DHT22;592;48.764;9.174;2024-02-23T16:20:28;8.00;99.90
1205;DHT22;592;48.764;9.174;2024-02-23T16:22:56;8.00;99.90
1205;DHT22;592;48.764;9.174;2024-02-23T16:25:23;7.90;99.90
1205;DHT22;592;48.764;9.174;2024-02-23T16:28:00;7.80;99.90
1205;DHT22;592;48.764;9.174;2024-02-23T16:30:27;7.60;99.90
1205;DHT22;592;48.764;9.174;2024-02-23T16:32:55;7.70;99.90
1205;DHT22;592;48.764;9.174;2024-02-23T16:35:22;7.50;99.90
1205;DHT22;592;48.764;9.174;2024-02-23T16:37:50;7.60;99.90
1205;DHT22;592;48.764;9.174;2024-02-23T16:40:22;7.60;99.90
1205;DHT22;592;48.764;9.174;2024-02-23T16:42:49;7.70;99.90
1205;DHT22;592;48.764;9.174;2024-02-23T16:45:19;7.70;99.90
1205;DHT22;592;48.764;9.174;2024-02-23T16:47:46;7.60;99.90
1205;DHT22;592;48.764;9.174;2024-02-23T16:50:13;7.70;99.90
1205;DHT22;592;48.764;9.174;2024-02-23T16:52:40;7.70;99.90
1205;DHT22;592;48.764;9.174;2024-02-23T16:55:07;7.70;99.90
1205;DHT22;592;48.764;9.174;2024-02-23T16:57:35;7.80;99.90
1205;DHT22;592;48.764;9.174;2024-02-23T17:00:02;7.80;99.90
1205;DHT22;592;48.764;9.174;2024-02-23T17:02:30;7.70;99.90
1205;DHT22;592;48.764;9.174;2024-02-23T17:04:57;7.60;99.90
1205;DHT22;592;48.764;9.174;2024-02-23T17:07:26;7.50;99.90
1205;DHT22;592;48.764;9.174;2024-02-23T17:09:54;7.50;99.90
1205;DHT22;592;48.764;9.174;2024-02-23T17:12:21;7.50;99.90
1205;DHT22;592;48.764;9.174;2024-02-23T17:14:48;7.40;99.90
1205;DHT22;592;48.764;9.174;2024-02-23T17:17:15;7.50;99.90
1205;DHT22;592;48.764;9.174;2024-02-23T17:19:45;7.50;99.90
1205;DHT22;592;48.764;9.174;2024-02-23T17:22:12;7.50;99.90
1205;DHT22;592;48.764;9.174;2024-02-23T17:24:39;7.50;99.90
1205;DHT22;592;48.764;9.174;2024-02-23T17:27:08;7.50;99.90
1205;DHT22;592;48.764;9.174;2024-02-23T17:29:38;7.50;99.90
1205;DHT22;592;48.764;9.174;2024-02-23T17:32:05;7.50;99.90
1205;DHT22;592;48.764;9.174;2024-02-23T17:34:32;7.50;99.90
1205;DHT22;592;48.764;9.174;2024-02-23T17:37:00;7.40;99.90
1205;DHT22;592;48.764;9.174;2024-02-23T17:39:27;7.30;99.90
1205;DHT22;592;48.764;9.174;2024-02-23T17:41:54;7.30;99.90
1205;DHT22;592;48.764;9.174;2024-02-23T17:44:21;7.30;99.90
1205;DHT22;592;48.764;9.174;2024-02-23T17:46:48;7.10;99.90
1205;DHT22;592;48.764;9.174;2024-02-23T17:49:15;7.10;99.90
1205;DHT22;592;48.764;9.174;2024-02-23T17:51:42;7.10;99.90
1205;DHT22;592;48.764;9.174;2024-02-23T17:54:10;7.00;99.90
1205;DHT22;592;48.764;9.174;2024-02-23T17:56:37;7.00;99.90
1205;DHT22;592;48.764;9.174;2024-02-23T17:59:04;7.00;99.90
1205;DHT22;592;48.764;9.174;2024-02-23T18:01:31;7.00;99.90
1205;DHT22;592;48.764;9.174;2024-02-23T18:03:58;7.00;99.90
1205;DHT22;592;48.764;9.174;2024-02-23T18:06:25;6.90;99.90
1205;DHT22;592;48.764;9.174;2024-02-23T18:08:52;6.80;99.90
1205;DHT22;592;48.764;9.174;2024-02-23T18:11:20;6.90;99.90
1205;DHT22;592;48.764;9.174;2024-02-23T18:13:47;6.70;99.90
1205;DHT22;592;48.764;9.174;2024-02-23T18:16:13;6.70;99.90
1205;DHT22;592;48.764;9.174;2024-02-23T18:18:45;6.60;99.90
1205;DHT22;592;48.764;9.174;2024-02-23T18:21:12;6.60;99.90
1205;DHT22;592;48.764;9.174;2024-02-23T18:23:42;6.60;99.90
1205;DHT22;592;48.764;9.174;2024-02-23T18:26:11;6.60;99.90
1205;DHT22;592;48.764;9.174;2024-02-23T18:28:40;6.60;99.90
1205;DHT22;592;48.764;9.174;2024-02-23T18:31:07;6.50;99.90
1205;DHT22;592;48.764;9.174;2024-02-23T18:33:33;6.40;99.90
1205;DHT22;592;48.764;9.174;2024-02-23T18:36:00;6.40;99.90
1205;DHT22;592;48.764;9.174;2024-02-23T18:38:27;6.40;99.90
1205;DHT22;592;48.764;9.174;2024-02-23T18:40:54;6.40;99.90
1205;DHT22;592;48.764;9.174;2024-02-23T18:43:21;6.30;99.90
1205;DHT22;592;48.764;9.174;2024-02-23T18:45:49;6.20;99.90
1205;DHT22;592;48.764;9.174;2024-02-23T18:48:16;6.30;99.90
1205;DHT22;592;48.764;9.174;2024-02-23T18:50:45;6.20;99.90
1205;DHT22;592;48.764;9.174;2024-02-23T18:53:11;6.10;99.90
1205;DHT22;592;48.764;9.174;2024-02-23T18:55:39;6.10;99.90
1205;DHT22;592;48.764;9.174;2024-02-23T18:58:06;6.00;99.90
1205;DHT22;592;48.764;9.174;2024-02-23T19:00:34;6.00;99.90
1205;DHT22;592;48.764;9.174;2024-02-23T19:03:02;6.00;99.90
1205;DHT22;592;48.764;9.174;2024-02-23T19:05:29;5.90;99.90
1205;DHT22;592;48.764;9.174;2024-02-23T19:07:56;5.90;99.90
1205;DHT22;592;48.764;9.174;2024-02-23T19:10:23;5.90;99.90
1205;DHT22;592;48.764;9.174;2024-02-23T19:12:49;5.80;99.90
1205;DHT22;592;48.764;9.174;2024-02-23T19:15:16;5.80;99.90
1205;DHT22;592;48.764;9.174;2024-02-23T19:17:44;5.80;99.90
1205;DHT22;592;48.764;9.174;2024-02-23T19:20:15;5.80;99.90
1205;DHT22;592;48.764;9.174;2024-02-23T19:22:42;5.70;99.90
1205;DHT22;592;48.764;9.174;2024-02-23T19:25:10;5.70;99.90
1205;DHT22;592;48.764;9.174;2024-02-23T19:27:38;5.60;99.90
1205;DHT22;592;48.764;9.174;2024-02-23T19:30:06;5.60;99.90
1205;DHT22;592;48.764;9.174;2024-02-23T19:32:36;5.60;99.90
1205;DHT22;592;48.764;9.174;2024-02-23T19:35:03;5.50;99.90
1205;DHT22;592;48.764;9.174;2024-02-23T19:37:32;5.50;99.90
1205;DHT22;592;48.764;9.174;2024-02-23T19:39:59;5.50;99.90
1205;DHT22;592;48.764;9.174;2024-02-23T19:42:26;5.40;99.90
1205;DHT22;592;48.764;9.174;2024-02-23T19:44:53;5.40;99.90
1205;DHT22;592;48.764;9.174;2024-02-23T19:47:20;5.30;99.90
1205;DHT22;592;48.764;9.174;2024-02-23T19:49:47;5.30;99.90
1205;DHT22;592;48.764;9.174;2024-02-23T19:52:14;5.30;99.90
1205;DHT22;592;48.764;9.174;2024-02-23T19:54:43;5.30;99.90
1205;DHT22;592;48.764;9.174;2024-02-23T19:57:10;5.30;99.90
1205;DHT22;592;48.764;9.174;2024-02-23T19:59:37;5.30;99.90
1205;DHT22;592;48.764;9.174;2024-02-23T20:02:06;5.20;99.90
1205;DHT22;592;48.764;9.174;2024-02-23T20:04:34;5.20;99.90
1205;DHT22;592;48.764;9.174;2024-02-23T20:07:01;5.20;99.90
1205;DHT22;592;48.764;9.174;2024-02-23T20:09:28;5.20;99.90
1205;DHT22;592;48.764;9.174;2024-02-23T20:11:57;5.20;99.90
1205;DHT22;592;48.764;9.174;2024-02-23T20:14:23;5.20;99.90
1205;DHT22;592;48.764;9.174;2024-02-23T20:16:50;5.20;99.90
1205;DHT22;592;48.764;9.174;2024-02-23T20:19:17;5.10;99.90
1205;DHT22;592;48.764;9.174;2024-02-23T20:21:44;5.00;99.90
1205;DHT22;592;48.764;9.174;2024-02-23T20:24:11;5.00;99.90
1205;DHT22;592;48.764;9.174;2024-02-23T20:26:38;5.00;99.90
1205;DHT22;592;48.764;9.174;2024-02-23T20:29:09;5.00;99.90
1205;DHT22;592;48.764;9.174;2024-02-23T20:31:35;4.90;99.90
1205;DHT22;592;48.764;9.174;2024-02-23T20:34:04;4.90;99.90
1205;DHT22;592;48.764;9.174;2024-02-23T20:36:32;4.90;99.90
1205;DHT22;592;48.764;9.174;2024-02-23T20:38:59;4.80;99.90
1205;DHT22;592;48.764;9.174;2024-02-23T20:41:25;4.80;99.90
1205;DHT22;592;48.764;9.174;2024-02-23T20:43:52;4.80;99.90
1205;DHT22;592;48.764;9.174;2024-02-23T20:46:22;4.80;99.90
1205;DHT22;592;48.764;9.174;2024-02-23T20:48:49;4.80;99.90
1205;DHT22;592;48.764;9.174;2024-02-23T20:51:15;4.80;99.90
1205;DHT22;592;48.764;9.174;2024-02-23T20:53:43;4.70;99.90
1205;DHT22;592;48.764;9.174;2024-02-23T20:56:13;4.70;99.90
1205;DHT22;592;48.764;9.174;2024-02-23T20:58:39;4.70;99.90
1205;DHT22;592;48.764;9.174;2024-02-23T21:01:07;4.70;99.90
1205;DHT22;592;48.764;9.174;2024-02-23T21:03:36;4.70;99.90
1205;DHT22;592;48.764;9.174;2024-02-23T21:06:04;4.70;99.90
1205;DHT22;592;48.764;9.174;2024-02-23T21:08:31;4.70;99.90
1205;DHT22;592;48.764;9.174;2024-02-23T21:10:57;4.70;99.90
1205;DHT22;592;48.764;9.174;2024-02-23T21:13:24;4.60;99.90
1205;DHT22;592;48.764;9.174;2024-02-23T21:15:51;4.60;99.90
1205;DHT22;592;48.764;9.174;2024-02-23T21:18:19;4.60;99.90
1205;DHT22;592;48.764;9.174;2024-02-23T21:20:47;4.60;99.90
1205;DHT22;592;48.764;9.174;2024-02-23T21:23:14;4.50;99.90
1205;DHT22;592;48.764;9.174;2024-02-23T21:25:43;4.60;99.90
1205;DHT22;592;48.764;9.174;2024-02-23T21:28:10;4.40;99.90
1205;DHT22;592;48.764;9.174;2024-02-23T21:30:36;4.30;99.90
1205;DHT22;592;48.764;9.174;2024-02-23T21:33:07;4.30;99.90
1205;DHT22;592;48.764;9.174;2024-02-23T21:35:34;4.20;99.90
1205;DHT22;592;48.764;9.174;2024-02-23T21:38:03;4.30;99.90
1205;DHT22;592;48.764;9.174;2024-02-23T21:40:30;4.30;99.90
1205;DHT22;592;48.764;9.174;2024-02-23T21:42:57;4.20;99.90
1205;DHT22;592;48.764;9.174;2024-02-23T21:45:23;4.30;99.90
1205;DHT22;592;48.764;9.174;2024-02-23T21:47:50;4.30;99.90
1205;DHT22;592;48.764;9.174;2024-02-23T21:50:17;4.30;99.90
1205;DHT22;592;48.764;9.174;2024-02-23T21:52:44;4.30;99.90
1205;DHT22;592;48.764;9.174;2024-02-23T21:55:12;4.20;99.90
1205;DHT22;592;48.764;9.174;2024-02-23T21:57:39;4.20;99.90
1205;DHT22;592;48.764;9.174;2024-02-23T22:00:07;4.20;99.90
1205;DHT22;592;48.764;9.174;2024-02-23T22:02:33;4.20;99.90
1205;DHT22;592;48.764;9.174;2024-02-23T22:05:00;4.20;99.90
1205;DHT22;592;48.764;9.174;2024-02-23T22:07:27;4.10;99.90
1205;DHT22;592;48.764;9.174;2024-02-23T22:09:53;4.20;99.90
1205;DHT22;592;48.764;9.174;2024-02-23T22:12:23;4.10;99.90
1205;DHT22;592;48.764;9.174;2024-02-23T22:14:51;4.00;99.90
1205;DHT22;592;48.764;9.174;2024-02-23T22:17:18;3.70;99.90
1205;DHT22;592;48.764;9.174;2024-02-23T22:19:45;3.60;99.90
1205;DHT22;592;48.764;9.174;2024-02-23T22:22:11;3.60;99.90
1205;DHT22;592;48.764;9.174;2024-02-23T22:24:38;3.60;99.90
1205;DHT22;592;48.764;9.174;2024-02-23T22:27:06;3.50;99.90
1205;DHT22;592;48.764;9.174;2024-02-23T22:29:34;3.50;99.90
1205;DHT22;592;48.764;9.174;2024-02-23T22:32:01;3.50;99.90
1205;DHT22;592;48.764;9.174;2024-02-23T22:34:28;3.50;99.90
1205;DHT22;592;48.764;9.174;2024-02-23T22:36:55;3.60;99.90
1205;DHT22;592;48.764;9.174;2024-02-23T22:39:21;3.60;99.90
1205;DHT22;592;48.764;9.174;2024-02-23T22:41:48;3.60;99.90
1205;DHT22;592;48.764;9.174;2024-02-23T22:44:15;3.60;99.90
1205;DHT22;592;48.764;9.174;2024-02-23T22:46:43;3.60;99.90
1205;DHT22;592;48.764;9.174;2024-02-23T22:49:11;3.60;99.90
1205;DHT22;592;48.764;9.174;2024-02-23T22:51:40;3.70;99.90
1205;DHT22;592;48.764;9.174;2024-02-23T22:54:08;3.60;99.90
1205;DHT22;592;48.764;9.174;2024-02-23T22:56:35;3.60;99.90
1205;DHT22;592;48.764;9.174;2024-02-23T22:59:01;3.50;99.90
1205;DHT22;592;48.764;9.174;2024-02-23T23:01:34;3.50;99.90
1205;DHT22;592;48.764;9.174;2024-02-23T23:04:02;3.40;99.90
1205;DHT22;592;48.764;9.174;2024-02-23T23:06:30;3.30;99.90
1205;DHT22;592;48.764;9.174;2024-02-23T23:08:58;3.30;99.90
1205;DHT22;592;48.764;9.174;2024-02-23T23:11:25;3.30;99.90
1205;DHT22;592;48.764;9.174;2024-02-23T23:13:51;3.20;99.90
1205;DHT22;592;48.764;9.174;2024-02-23T23:16:18;3.20;99.90
1205;DHT22;592;48.764;9.174;2024-02-23T23:18:45;3.30;99.90
1205;DHT22;592;48.764;9.174;2024-02-23T23:21:13;3.60;99.90
1205;DHT22;592;48.764;9.174;2024-02-23T23:23:39;3.60;99.90
1205;DHT22;592;48.764;9.174;2024-02-23T23:26:06;3.70;99.90
1205;DHT22;592;48.764;9.174;2024-02-23T23:28:33;3.70;99.90
1205;DHT22;592;48.764;9.174;2024-02-23T23:31:00;3.70;99.90
1205;DHT22;592;48.764;9.174;2024-02-23T23:33:26;3.80;99.90
1205;DHT22;592;48.764;9.174;2024-02-23T23:35:53;3.80;99.90
1205;DHT22;592;48.764;9.174;2024-02-23T23:38:21;3.80;99.90
1205;DHT22;592;48.764;9.174;2024-02-23T23:40:48;3.80;99.90
1205;DHT22;592;48.764;9.174;2024-02-23T23:43:15;3.90;99.90
1205;DHT22;592;48.764;9.174;2024-02-23T23:45:41;4.00;99.90
1205;DHT22;592;48.764;9.174;2024-02-23T23:48:08;4.10;99.90
1205;DHT22;592;48.764;9.174;2024-02-23T23:50:35;4.10;99.90
1205;DHT22;592;48.764;9.174;2024-02-23T23:53:03;4.10;99.90
1205;DHT22;592;48.764;9.174;2024-02-23T23:55:31;4.20;99.90
1205;DHT22;592;48.764;9.174;2024-02-23T23:57:57;4.20;99.90
